BLQ weather

Bologna Guglielmo Marconi Airport
Bologna, Emilia-Romagna, Italy

Public forecast

Using degrees Celsius for public forecast. Weather courtesy of forecast.io.

Current aviation weather report (METAR) for Bologna Guglielmo Marconi Airport

Retrieved 2019/11/20 00:20 UTC (19 minutes ago):

LIPE 200020Z 25007KT 1800 BR BKN002 BKN010 10/10 Q1015

Aviation forecast (TAF) for Bologna Guglielmo Marconi Airport

Retrieved 2019-11-20 00:00 UTC (39 minutes ago):

TAF LIPE 192300Z 2000/2024 VRB03KT 1500 BR SCT003 BKN014 BECMG 2000/2003 0400 FG BECMG 2010/2012 6000 SCT020 BECMG 2020/2022 3000 BR